Aviation Digital Data Service (ADDS)

Output produced by METARs form (0305 UTC 28 February 2017)
found at http://aviationweather.gov/adds/metars/
 
KPNE 272340Z 2800/2824 22008KT P6SM BKN080 OVC100 
     FM281500 17006KT P6SM SCT050 BKN200